createdAt,value
2019-03-10T00:01:35.669Z,33.40
2019-03-10T00:06:38.417Z,42.70
2019-03-10T00:11:41.986Z,34.70
2019-03-10T00:16:43.590Z,38.00
2019-03-10T00:21:46.326Z,26.80
2019-03-10T00:26:53.770Z,25.07
2019-03-10T00:31:55.378Z,34.23
2019-03-10T00:36:57.114Z,27.70
2019-03-10T00:42:08.464Z,25.30
2019-03-10T00:47:35.610Z,26.20
2019-03-10T00:52:39.495Z,31.53
2019-03-10T00:57:41.346Z,25.80
2019-03-10T01:02:47.473Z,24.47
2019-03-10T01:07:49.150Z,28.70
2019-03-10T01:12:50.793Z,30.37
2019-03-10T01:17:52.785Z,25.60
2019-03-10T01:22:54.463Z,35.57
2019-03-10T01:27:56.308Z,27.53
2019-03-10T01:33:06.993Z,31.30
2019-03-10T01:38:11.497Z,24.63
2019-03-10T01:43:15.214Z,30.10
2019-03-10T01:48:17.350Z,22.10
2019-03-10T01:53:25.546Z,30.47
2019-03-10T01:58:22.902Z,32.20
2019-03-10T02:03:24.905Z,24.43
2019-03-10T02:08:29.251Z,25.53
2019-03-10T02:13:30.988Z,22.43
2019-03-10T02:18:37.402Z,29.93
2019-03-10T02:23:39.150Z,28.57
2019-03-10T02:28:40.800Z,25.43
2019-03-10T02:33:43.062Z,31.60
2019-03-10T02:38:44.656Z,31.67
2019-03-10T02:43:46.740Z,33.83
2019-03-10T02:48:48.433Z,32.37
2019-03-10T02:53:50.133Z,29.63
2019-03-10T02:58:54.724Z,42.30
2019-03-10T03:03:56.353Z,26.33
2019-03-10T03:08:58.047Z,22.47
2019-03-10T03:13:59.896Z,29.27
2019-03-10T03:19:01.666Z,32.53
2019-03-10T03:24:03.308Z,29.77
2019-03-10T03:29:05.102Z,42.23
2019-03-10T03:34:06.814Z,35.00
2019-03-10T03:39:10.696Z,44.30
2019-03-10T03:44:12.520Z,40.17
2019-03-10T03:49:14.151Z,42.43
2019-03-10T03:54:17.284Z,52.00
2019-03-10T03:59:21.053Z,55.67
2019-03-10T04:04:22.777Z,44.90
2019-03-10T04:09:24.511Z,51.00
2019-03-10T04:14:27.763Z,45.73
2019-03-10T04:19:29.394Z,38.70
2019-03-10T04:24:31.791Z,54.13
2019-03-10T04:29:35.740Z,62.90
2019-03-10T04:34:37.397Z,50.77
2019-03-10T04:39:39.326Z,46.00
2019-03-10T04:44:41.406Z,41.97
2019-03-10T04:49:43.255Z,50.23
2019-03-10T04:54:58.387Z,42.83
2019-03-10T05:00:00.111Z,47.50
2019-03-10T05:05:01.969Z,43.47
2019-03-10T05:10:03.833Z,38.07
2019-03-10T05:15:07.606Z,35.03
2019-03-10T05:20:11.342Z,40.23
2019-03-10T05:25:14.377Z,38.73
2019-03-10T05:30:18.776Z,40.10
2019-03-10T05:35:20.781Z,36.50
2019-03-10T05:40:24.425Z,42.77
2019-03-10T05:45:26.455Z,41.00
2019-03-10T05:50:28.111Z,56.60
2019-03-10T05:55:29.713Z,47.60
2019-03-10T06:00:42.053Z,41.73
2019-03-10T06:05:40.455Z,44.40
2019-03-10T06:10:48.331Z,51.40
2019-03-10T06:15:52.145Z,52.93
2019-03-10T06:20:53.887Z,43.67
2019-03-10T06:25:55.545Z,35.30
2019-03-10T06:30:58.389Z,39.33
2019-03-10T06:36:00.026Z,39.40
2019-03-10T06:41:01.637Z,46.67
2019-03-10T06:46:03.221Z,63.50
2019-03-10T06:51:06.202Z,39.17
2019-03-10T06:56:10.629Z,33.97
2019-03-10T07:01:16.857Z,35.27
2019-03-10T07:06:20.900Z,37.40
2019-03-10T07:11:23.970Z,44.03
2019-03-10T07:16:25.560Z,37.87
2019-03-10T07:21:32.247Z,31.90
2019-03-10T07:26:34.012Z,37.53
2019-03-10T07:31:49.473Z,36.93
2019-03-10T07:37:09.050Z,36.07
2019-03-10T07:42:36.370Z,35.13
2019-03-10T07:47:53.446Z,29.67
2019-03-10T07:53:14.597Z,33.53
2019-03-10T07:58:38.326Z,23.17
2019-03-10T08:04:17.604Z,22.23
2019-03-10T08:09:34.957Z,28.80
2019-03-10T08:14:53.951Z,22.83
2019-03-10T08:20:01.481Z,17.10
2019-03-10T08:25:28.935Z,25.07
2019-03-10T08:30:47.802Z,20.13
2019-03-10T08:36:10.134Z,15.10
2019-03-10T08:41:34.233Z,17.07
2019-03-10T08:46:58.590Z,19.07
2019-03-10T08:52:24.139Z,15.70
2019-03-10T08:57:52.668Z,13.23
2019-03-10T09:03:02.943Z,18.07
2019-03-10T09:08:24.138Z,15.00
2019-03-10T09:13:41.853Z,10.00
2019-03-10T09:19:05.718Z,16.27
2019-03-10T09:24:29.778Z,11.33
2019-03-10T09:29:51.046Z,11.63
2019-03-10T09:35:18.034Z,12.60
2019-03-10T09:40:38.356Z,8.30
2019-03-10T09:45:49.456Z,10.63
2019-03-10T09:51:05.082Z,7.73
2019-03-10T09:56:30.959Z,6.37
2019-03-10T10:01:59.147Z,8.50
2019-03-10T10:07:31.508Z,10.63
2019-03-10T10:12:50.598Z,8.93
2019-03-10T10:18:27.301Z,6.67
2019-03-10T10:23:56.219Z,10.57
2019-03-10T10:29:13.030Z,15.93
2019-03-10T10:34:30.588Z,12.30
2019-03-10T10:39:48.587Z,11.30
2019-03-10T10:45:19.330Z,14.37
2019-03-10T10:50:39.302Z,14.30
2019-03-10T10:55:50.264Z,14.40
2019-03-10T11:01:36.842Z,20.47
2019-03-10T12:00:02.358Z,20.17
2019-03-10T12:05:32.385Z,93.00
2019-03-10T12:10:34.085Z,66.83
2019-03-10T12:15:35.970Z,64.77
2019-03-10T12:20:37.595Z,35.17
2019-03-10T12:25:39.570Z,59.30
2019-03-10T12:30:41.433Z,53.20
2019-03-10T12:35:43.518Z,46.67
2019-03-10T12:40:45.135Z,31.37
2019-03-10T12:45:53.856Z,29.23
2019-03-10T12:50:56.230Z,21.20
2019-03-10T12:55:57.938Z,26.67
2019-03-10T13:01:06.143Z,20.83
2019-03-10T13:06:03.175Z,20.07
2019-03-10T13:11:05.902Z,26.97
2019-03-10T13:16:07.630Z,24.77
2019-03-10T13:21:09.361Z,28.30
2019-03-10T13:26:12.243Z,27.03
2019-03-10T13:31:13.877Z,25.87
2019-03-10T13:36:15.541Z,25.90
2019-03-10T13:41:17.214Z,21.23
2019-03-10T13:46:19.304Z,15.23
2019-03-10T13:51:21.109Z,8.40
2019-03-10T13:56:23.317Z,2.50
2019-03-10T14:01:25.033Z,2.17
2019-03-10T14:06:27.467Z,1.00
2019-03-10T14:11:29.339Z,2.10
2019-03-10T14:16:32.521Z,1.07
2019-03-10T14:21:35.344Z,1.30
2019-03-10T14:26:38.925Z,1.80
2019-03-10T14:31:40.644Z,1.50
2019-03-10T14:36:42.468Z,1.00
2019-03-10T14:41:44.175Z,1.30
2019-03-10T14:46:46.649Z,4.90
2019-03-10T14:51:53.142Z,4.30
2019-03-10T14:56:54.971Z,2.80
2019-03-10T15:01:57.011Z,3.87
2019-03-10T15:06:58.618Z,6.30
2019-03-10T15:12:00.344Z,5.97
2019-03-10T15:17:02.314Z,7.97
2019-03-10T15:22:04.193Z,6.73
2019-03-10T15:27:07.016Z,6.33
2019-03-10T15:32:08.784Z,6.23
2019-03-10T15:37:10.681Z,6.53
2019-03-10T15:42:12.404Z,9.10
2019-03-10T15:47:14.119Z,4.37
2019-03-10T15:52:16.228Z,3.63
2019-03-10T15:57:18.460Z,5.67
2019-03-10T16:02:23.607Z,4.03
2019-03-10T16:07:25.405Z,2.87
2019-03-10T16:12:27.067Z,4.27
2019-03-10T16:17:37.893Z,1.87
2019-03-10T16:22:39.623Z,4.83
2019-03-10T16:27:41.742Z,1.40
2019-03-10T16:32:46.235Z,3.80
2019-03-10T16:37:48.182Z,5.77
2019-03-10T16:42:54.845Z,3.30
2019-03-10T16:48:03.753Z,7.27
2019-03-10T16:53:12.882Z,3.60
2019-03-10T16:58:14.707Z,2.60
2019-03-10T17:08:31.978Z,9.17
2019-03-10T17:13:33.881Z,4.80
2019-03-10T17:18:38.080Z,2.80
2019-03-10T17:23:39.873Z,1.33
2019-03-10T17:28:41.547Z,1.37
2019-03-10T17:33:43.552Z,4.30
2019-03-10T17:38:48.098Z,6.10
2019-03-10T17:43:49.903Z,6.33
2019-03-10T17:48:51.639Z,6.93
2019-03-10T17:53:56.779Z,9.63
2019-03-10T17:59:00.215Z,10.73
2019-03-10T18:04:03.481Z,14.73
2019-03-10T18:09:05.546Z,13.33
2019-03-10T18:14:07.950Z,14.97
2019-03-10T18:19:09.617Z,15.73
2019-03-10T18:24:13.830Z,10.27
2019-03-10T18:29:15.538Z,17.00
2019-03-10T18:34:19.032Z,17.70
2019-03-10T18:39:22.094Z,20.33
2019-03-10T18:44:23.743Z,33.27
2019-03-10T18:49:26.813Z,12.27
2019-03-10T18:54:28.538Z,14.90
2019-03-10T18:59:30.195Z,9.50
2019-03-10T19:04:31.970Z,8.63
2019-03-10T19:09:33.676Z,3.20
2019-03-10T19:14:38.378Z,8.40
2019-03-10T19:19:40.022Z,6.63
2019-03-10T19:24:41.637Z,10.77
2019-03-10T19:29:43.517Z,8.07
2019-03-10T19:34:46.313Z,9.63
2019-03-10T19:39:48.203Z,9.83
2019-03-10T19:44:49.862Z,17.70
2019-03-10T19:49:51.898Z,19.07
2019-03-10T19:54:53.633Z,17.17
2019-03-10T19:59:56.641Z,24.37
2019-03-10T20:05:01.065Z,14.73
2019-03-10T20:10:04.419Z,23.73
2019-03-10T20:15:07.575Z,26.77
2019-03-10T20:20:11.315Z,24.90
2019-03-10T20:25:15.780Z,18.63
2019-03-10T20:30:18.080Z,16.50
2019-03-10T20:35:19.990Z,16.70
2019-03-10T20:40:21.811Z,19.77
2019-03-10T20:45:24.742Z,23.97
2019-03-10T20:50:27.370Z,21.33
2019-03-10T20:55:31.065Z,14.30
2019-03-10T21:00:33.296Z,19.43
2019-03-10T21:05:37.735Z,20.83
2019-03-10T21:10:39.509Z,23.03
2019-03-10T21:15:41.159Z,28.63
2019-03-10T21:20:43.074Z,29.53
2019-03-10T21:25:44.716Z,22.93
2019-03-10T21:30:46.481Z,18.40
2019-03-10T21:35:51.163Z,15.33
2019-03-10T21:40:52.823Z,17.50
2019-03-10T21:45:54.508Z,17.27
2019-03-10T21:50:57.496Z,11.53
2019-03-10T21:55:59.221Z,21.47
2019-03-10T22:01:01.082Z,16.37
2019-03-10T22:06:03.774Z,19.83
2019-03-10T22:11:05.695Z,17.67
2019-03-10T22:16:07.454Z,21.03
2019-03-10T22:21:10.457Z,18.30
2019-03-10T22:26:12.111Z,15.67
2019-03-10T22:31:13.952Z,21.53
2019-03-10T22:36:17.988Z,14.73
2019-03-10T22:41:23.225Z,14.83
2019-03-10T22:46:25.355Z,15.13
2019-03-10T22:51:27.075Z,14.03
2019-03-10T22:56:29.114Z,19.93
2019-03-10T23:01:31.179Z,20.83
2019-03-10T23:06:32.926Z,14.37
2019-03-10T23:11:35.653Z,10.87
2019-03-10T23:16:37.331Z,13.67
2019-03-10T23:21:40.223Z,13.17
2019-03-10T23:26:41.850Z,10.60
2019-03-10T23:31:43.599Z,15.03
2019-03-10T23:36:45.505Z,15.37
2019-03-10T23:41:47.130Z,11.73
2019-03-10T23:46:48.882Z,15.07
2019-03-10T23:51:50.509Z,16.53
2019-03-10T23:56:52.681Z,15.63
